Time;durP1;ratioP1;P1;durP2;ratioP2;P2;SDS_P1;SDS_P2;PMS_P1;PMS_P2;Temp;Humidity;BMP_temperature;BMP_pressure;BME280_temperature;BME280_humidity;BME280_pressure;Samples;Min_cycle;Max_cycle;Signal;HPM_P1;HPM_P2
2022/12/30 00:01:03;;;;;;;31.77;16.13;;;5.90;99.90;;;;;;4961994;28;20041;-90
2022/12/30 00:03:29;;;;;;;36.38;16.00;;;5.80;99.90;;;;;;5006267;28;20562;-90
2022/12/30 00:05:55;;;;;;;29.52;14.88;;;5.80;99.90;;;;;;4955865;28;20063;-89
2022/12/30 00:11:24;;;;;;;33.20;13.88;;;5.80;99.90;;;;;;4960331;28;20475;-90
2022/12/30 00:34:09;;;;;;;37.85;16.08;;;5.70;99.90;;;;;;5066844;28;20039;-89
2022/12/30 00:36:36;;;;;;;35.50;15.57;;;5.70;99.90;;;;;;4955567;28;20035;-89
2022/12/30 00:39:02;;;;;;;34.67;12.63;;;5.60;99.90;;;;;;4955583;28;20042;-90
2022/12/30 00:44:12;;;;;;;26.80;12.70;;;5.60;99.90;;;;;;4971672;28;20168;-90
2022/12/30 00:46:39;;;;;;;25.83;11.32;;;5.70;99.90;;;;;;4955387;28;20489;-89
2022/12/30 00:57:17;;;;;;;23.92;9.73;;;5.70;99.90;;;;;;5073080;28;20027;-89
2022/12/30 00:59:43;;;;;;;28.63;9.52;;;5.60;99.90;;;;;;4971304;28;20034;-89
2022/12/30 01:02:09;;;;;;;27.60;7.72;;;5.60;99.90;;;;;;4955625;28;20039;-89
2022/12/30 01:04:34;;;;;;;27.45;7.93;;;5.60;99.90;;;;;;4954953;28;20323;-89
2022/12/30 01:07:00;;;;;;;28.33;7.78;;;5.60;99.90;;;;;;4955578;28;20121;-90
2022/12/30 01:09:26;;;;;;;22.27;7.03;;;5.50;99.90;;;;;;4955598;28;20027;-90
2022/12/30 01:12:09;;;;;;;27.83;7.30;;;5.50;99.90;;;;;;4955798;28;20498;-90
2022/12/30 01:14:42;;;;;;;24.83;7.55;;;5.40;99.90;;;;;;4955435;28;20023;-90
2022/12/30 01:17:11;;;;;;;28.88;8.25;;;5.30;99.90;;;;;;4955613;28;20031;-90
2022/12/30 01:19:37;;;;;;;27.02;7.78;;;5.20;99.90;;;;;;4955581;28;20027;-89
2022/12/30 01:22:07;;;;;;;24.63;6.55;;;5.20;99.90;;;;;;4960240;28;20042;-90
2022/12/30 01:24:33;;;;;;;25.52;7.75;;;5.20;99.90;;;;;;4950246;28;20090;-89
2022/12/30 01:26:58;;;;;;;24.88;7.82;;;5.20;99.90;;;;;;4972683;28;20104;-90
2022/12/30 01:29:38;;;;;;;25.77;8.07;;;5.20;99.90;;;;;;5077257;28;20061;-90
2022/12/30 01:32:09;;;;;;;32.33;7.95;;;5.20;99.90;;;;;;5026188;28;20044;-90
2022/12/30 01:34:36;;;;;;;38.97;8.50;;;5.10;99.90;;;;;;5059883;28;20037;-90
2022/12/30 01:37:02;;;;;;;30.30;8.75;;;5.10;99.90;;;;;;4958354;28;20034;-89
2022/12/30 01:39:28;;;;;;;28.63;8.13;;;5.10;99.90;;;;;;5059931;28;20535;-89
2022/12/30 01:41:55;;;;;;;31.13;7.72;;;5.20;99.90;;;;;;4958582;28;20030;-90
2022/12/30 01:44:39;;;;;;;29.25;7.07;;;5.20;99.90;;;;;;5060113;28;20081;-90
2022/12/30 01:47:06;;;;;;;39.95;8.40;;;5.10;99.90;;;;;;4974495;28;20031;-89
2022/12/30 01:49:38;;;;;;;29.13;8.13;;;5.10;99.90;;;;;;5059284;28;20019;-90
2022/12/30 01:52:04;;;;;;;42.10;7.70;;;5.00;99.90;;;;;;4958488;28;20030;-90
2022/12/30 01:54:30;;;;;;;39.30;8.38;;;5.00;99.90;;;;;;4958352;28;20033;-90
2022/12/30 01:56:56;;;;;;;28.50;7.57;;;5.00;99.90;;;;;;4958267;28;20042;-89
2022/12/30 01:59:23;;;;;;;31.90;8.32;;;5.00;99.90;;;;;;4974674;28;20031;-90
2022/12/30 02:01:49;;;;;;;28.02;8.82;;;5.00;99.90;;;;;;4958350;28;20043;-89
2022/12/30 02:04:25;;;;;;;29.98;8.50;;;5.00;99.90;;;;;;4958267;28;20522;-90
2022/12/30 02:07:13;;;;;;;29.63;8.10;;;4.90;99.90;;;;;;4973898;28;20031;-89
2022/12/30 02:09:39;;;;;;;30.33;8.10;;;4.90;99.90;;;;;;4958191;28;20038;-90
2022/12/30 02:12:06;;;;;;;24.90;8.10;;;4.80;99.90;;;;;;4958579;28;20534;-91
2022/12/30 02:14:35;;;;;;;38.70;8.52;;;4.80;99.90;;;;;;4957841;28;20548;-89
2022/12/30 02:17:13;;;;;;;31.35;9.57;;;4.80;99.90;;;;;;4957881;28;20037;-90
2022/12/30 02:20:07;;;;;;;28.77;8.35;;;4.90;99.90;;;;;;4974159;28;20034;-90
2022/12/30 02:23:08;;;;;;;38.97;7.57;;;4.80;99.90;;;;;;4958101;28;20035;-90
2022/12/30 02:26:30;;;;;;;25.53;7.27;;;4.70;99.90;;;;;;4962081;28;20125;-89
2022/12/30 02:29:18;;;;;;;36.70;7.75;;;4.70;99.90;;;;;;4979489;28;20274;-89
2022/12/30 02:31:58;;;;;;;30.80;8.40;;;4.70;99.90;;;;;;4979473;28;20039;-89
2022/12/30 02:34:54;;;;;;;27.88;8.27;;;4.60;99.90;;;;;;4973843;28;20440;-89
2022/12/30 02:37:39;;;;;;;32.25;8.15;;;4.60;99.90;;;;;;5013876;28;20031;-90
2022/12/30 02:46:24;;;;;;;27.00;7.82;;;4.40;99.90;;;;;;4981591;28;20038;-89
2022/12/30 02:48:52;;;;;;;;;;;4.40;99.90;;;;;;5057164;28;20072;-90
2022/12/30 02:54:04;;;;;;;34.47;7.65;;;4.30;99.90;;;;;;4973563;28;20034;-90
2022/12/30 02:56:30;;;;;;;33.95;8.68;;;4.20;99.90;;;;;;4957593;28;20015;-90
2022/12/30 03:05:09;;;;;;;42.83;10.45;;;4.50;99.90;;;;;;4973024;28;20027;-89
2022/12/30 03:07:59;;;;;;;44.53;11.13;;;4.40;99.90;;;;;;5058051;28;20031;-89
2022/12/30 03:13:41;;;;;;;43.33;15.77;;;4.60;99.90;;;;;;4973051;28;20034;-89
2022/12/30 03:16:13;;;;;;;43.35;17.95;;;4.70;99.90;;;;;;5011721;28;20040;-90
2022/12/30 03:18:40;;;;;;;73.82;23.45;;;4.80;99.90;;;;;;5057965;28;20026;-90
2022/12/30 03:21:11;;;;;;;65.03;23.33;;;4.80;99.90;;;;;;4956919;28;20539;-89
2022/12/30 03:29:13;;;;;;;66.45;21.58;;;4.90;99.90;;;;;;4989215;28;20035;-90
2022/12/30 03:31:39;;;;;;;57.92;20.17;;;4.90;99.90;;;;;;4973242;28;20046;-89
2022/12/30 03:34:05;;;;;;;64.65;19.70;;;4.80;99.90;;;;;;4956732;28;20023;-89
2022/12/30 03:36:36;;;;;;;59.15;21.02;;;4.70;99.90;;;;;;5057935;28;20441;-89
2022/12/30 03:39:26;;;;;;;60.78;20.83;;;4.70;99.90;;;;;;4973055;28;20084;-90
2022/12/30 03:41:52;;;;;;;58.78;21.15;;;4.70;99.90;;;;;;4955994;28;20054;-89
2022/12/30 03:44:19;;;;;;;56.72;23.23;;;4.80;99.90;;;;;;5057879;28;20400;-90
2022/12/30 03:46:48;;;;;;;58.70;19.65;;;4.80;99.90;;;;;;4972178;28;20031;-89
2022/12/30 03:49:14;;;;;;;59.92;18.58;;;4.80;99.90;;;;;;4955762;28;20026;-90
2022/12/30 03:51:40;;;;;;;42.70;16.10;;;4.70;99.90;;;;;;4956525;28;20026;-90
2022/12/30 03:54:05;;;;;;;49.45;14.57;;;4.70;99.90;;;;;;4956870;28;20033;-89
2022/12/30 03:56:31;;;;;;;68.80;15.68;;;4.80;99.90;;;;;;4956424;28;20034;-90
2022/12/30 03:59:00;;;;;;;56.58;15.38;;;4.80;99.90;;;;;;5057393;28;20108;-89
2022/12/30 04:01:25;;;;;;;38.97;14.98;;;4.80;99.90;;;;;;4959377;28;20042;-90
2022/12/30 04:03:51;;;;;;;40.40;14.25;;;4.90;99.90;;;;;;5067396;28;20053;-90
2022/12/30 04:06:17;;;;;;;46.03;12.23;;;4.90;99.90;;;;;;4956484;28;20080;-89
2022/12/30 04:08:42;;;;;;;43.35;12.93;;;4.80;99.90;;;;;;5057586;28;20054;-89
2022/12/30 04:11:08;;;;;;;47.45;14.13;;;4.80;99.90;;;;;;4956271;28;20039;-90
2022/12/30 04:13:34;;;;;;;43.13;13.93;;;4.80;99.90;;;;;;5057369;28;20030;-89
2022/12/30 04:15:59;;;;;;;41.60;15.95;;;4.80;99.90;;;;;;4972118;28;20050;-89
2022/12/30 04:18:25;;;;;;;44.85;14.25;;;4.80;99.90;;;;;;5057357;28;20521;-89
2022/12/30 04:20:51;;;;;;;44.55;14.55;;;4.90;99.90;;;;;;4971955;28;20060;-90
2022/12/30 04:23:17;;;;;;;38.85;15.38;;;4.90;99.90;;;;;;5056790;28;20023;-89
2022/12/30 04:25:43;;;;;;;52.53;14.60;;;4.90;99.90;;;;;;4971587;28;20023;-89
2022/12/30 04:28:08;;;;;;;47.28;14.15;;;4.90;99.90;;;;;;4956096;28;20038;-90
2022/12/30 04:30:34;;;;;;;42.90;13.95;;;4.90;99.90;;;;;;4956000;28;20038;-90
2022/12/30 04:33:00;;;;;;;43.08;15.13;;;4.90;99.90;;;;;;4972007;28;20058;-89
2022/12/30 04:35:26;;;;;;;44.67;15.95;;;4.90;99.90;;;;;;4956284;28;20501;-89
2022/12/30 04:37:52;;;;;;;44.35;16.10;;;4.90;99.90;;;;;;5056115;28;20031;-90
2022/12/30 04:40:27;;;;;;;45.42;14.73;;;4.90;99.90;;;;;;4955865;28;20524;-89
2022/12/30 04:42:52;;;;;;;48.05;13.40;;;4.90;99.90;;;;;;5056695;28;20127;-90
2022/12/30 04:45:18;;;;;;;42.45;14.77;;;4.90;99.90;;;;;;4955669;28;20474;-88
2022/12/30 04:47:44;;;;;;;58.35;17.33;;;4.90;99.90;;;;;;5055881;28;20033;-89
2022/12/30 04:50:10;;;;;;;54.08;18.77;;;4.90;99.90;;;;;;4955584;28;20031;-89
2022/12/30 04:52:36;;;;;;;59.78;20.08;;;4.90;99.90;;;;;;5056359;28;20049;-89
2022/12/30 04:55:02;;;;;;;52.00;20.55;;;4.90;99.90;;;;;;4971096;28;20462;-89
2022/12/30 04:57:28;;;;;;;55.08;20.83;;;4.90;99.90;;;;;;4971728;28;20160;-89
2022/12/30 04:59:53;;;;;;;56.95;20.83;;;4.90;99.90;;;;;;4955003;28;20069;-90
2022/12/30 05:02:20;;;;;;;60.30;21.45;;;4.90;99.90;;;;;;4955966;28;20049;-90
2022/12/30 05:04:45;;;;;;;46.58;19.42;;;4.90;99.90;;;;;;4955398;28;20027;-91
2022/12/30 05:07:11;;;;;;;49.88;19.10;;;4.80;99.90;;;;;;4955446;28;20034;-89
2022/12/30 05:09:37;;;;;;;42.17;17.67;;;4.70;99.90;;;;;;4955459;28;20470;-89
2022/12/30 05:12:03;;;;;;;42.97;16.20;;;4.60;99.90;;;;;;5055897;28;20023;-89
2022/12/30 05:14:28;;;;;;;51.60;17.13;;;4.60;99.90;;;;;;4955452;28;20031;-89
2022/12/30 05:16:54;;;;;;;55.72;19.92;;;4.70;99.90;;;;;;5055970;28;20057;-89
2022/12/30 05:19:20;;;;;;;52.00;19.23;;;4.70;99.90;;;;;;4955262;28;20034;-89
2022/12/30 05:21:45;;;;;;;47.70;18.20;;;4.80;99.90;;;;;;5056083;28;20035;-89
2022/12/30 05:26:55;;;;;;;40.15;16.27;;;4.80;99.90;;;;;;5072653;28;20355;-89
2022/12/30 05:29:21;;;;;;;52.30;14.73;;;4.70;99.90;;;;;;4954813;28;20029;-89
2022/12/30 05:31:47;;;;;;;47.13;13.63;;;4.80;99.90;;;;;;5055778;28;20092;-89
2022/12/30 05:37:36;;;;;;;34.95;13.18;;;4.80;99.90;;;;;;4967436;28;20118;-89
2022/12/30 05:40:03;;;;;;;32.70;12.48;;;4.90;99.90;;;;;;5055109;28;20429;-90
2022/12/30 05:42:28;;;;;;;32.33;12.25;;;4.90;99.90;;;;;;5055921;28;20466;-89
2022/12/30 05:44:54;;;;;;;36.20;14.25;;;4.90;99.90;;;;;;5055660;28;20027;-90
2022/12/30 05:47:20;;;;;;;37.33;15.05;;;4.90;99.90;;;;;;5055759;28;20023;-89
2022/12/30 05:49:45;;;;;;;41.78;16.80;;;4.90;99.90;;;;;;4971101;28;20118;-90
2022/12/30 05:52:11;;;;;;;49.72;19.20;;;4.80;99.90;;;;;;5055593;28;20029;-89
2022/12/30 05:54:37;;;;;;;58.97;19.10;;;4.90;99.90;;;;;;4970684;28;20030;-89
2022/12/30 05:57:03;;;;;;;134.90;22.25;;;4.90;99.90;;;;;;5055694;28;20065;-89
2022/12/30 05:59:28;;;;;;;45.38;19.02;;;4.90;99.90;;;;;;4955331;28;20035;-90
2022/12/30 06:01:54;;;;;;;52.03;17.27;;;4.90;99.90;;;;;;5055427;28;20023;-89
2022/12/30 06:04:20;;;;;;;41.60;16.40;;;4.80;99.90;;;;;;4954530;28;20027;-89
2022/12/30 06:06:46;;;;;;;38.83;17.00;;;4.80;99.90;;;;;;5055169;28;20470;-88
2022/12/30 06:09:11;;;;;;;53.80;17.02;;;4.80;99.90;;;;;;4954797;28;20181;-89
2022/12/30 06:11:37;;;;;;;46.15;16.25;;;4.80;99.90;;;;;;4956523;28;20019;-89
2022/12/30 06:14:02;;;;;;;48.25;17.17;;;4.80;99.90;;;;;;5058691;28;20121;-89
2022/12/30 06:16:28;;;;;;;41.03;16.33;;;4.80;99.90;;;;;;5058804;28;20106;-89
2022/12/30 06:18:54;;;;;;;46.88;15.10;;;4.70;99.90;;;;;;5058268;28;20081;-89
2022/12/30 06:21:19;;;;;;;151.35;22.92;;;4.70;99.90;;;;;;5058571;28;20121;-89
2022/12/30 06:23:45;;;;;;;308.67;31.48;;;4.60;99.90;;;;;;4973352;28;20047;-88
2022/12/30 06:26:11;;;;;;;247.20;23.52;;;4.60;99.90;;;;;;5058924;28;20026;-89
2022/12/30 06:28:36;;;;;;;113.70;21.58;;;4.50;99.90;;;;;;4973603;28;20085;-89
2022/12/30 06:31:02;;;;;;;58.22;16.02;;;4.50;99.90;;;;;;4973667;28;20475;-88
2022/12/30 06:33:28;;;;;;;55.47;17.48;;;4.50;99.90;;;;;;4973810;28;20031;-89
2022/12/30 06:35:53;;;;;;;49.50;17.45;;;4.50;99.90;;;;;;4957476;28;20595;-89
2022/12/30 06:38:19;;;;;;;78.38;20.00;;;4.50;99.90;;;;;;4957501;28;20375;-89
2022/12/30 06:40:45;;;;;;;49.67;15.77;;;4.50;99.90;;;;;;4957254;28;20164;-89
2022/12/30 06:43:12;;;;;;;40.83;12.13;;;4.40;99.90;;;;;;4957541;28;20026;-88
2022/12/30 06:49:25;;;;;;;33.60;9.77;;;4.60;99.90;;;;;;4968450;28;20072;-88
2022/12/30 06:51:51;;;;;;;41.00;10.82;;;4.60;99.90;;;;;;4957277;28;20035;-89
2022/12/30 06:54:17;;;;;;;38.42;9.27;;;4.50;99.90;;;;;;4957938;28;20018;-89
2022/12/30 06:56:42;;;;;;;32.72;8.48;;;4.60;99.90;;;;;;4956865;28;20031;-89
2022/12/30 06:59:08;;;;;;;23.92;8.35;;;4.50;99.90;;;;;;4972864;28;20120;-89
2022/12/30 07:01:34;;;;;;;35.67;8.95;;;4.60;99.90;;;;;;4956945;28;20168;-89
2022/12/30 07:03:59;;;;;;;29.77;7.18;;;4.60;99.90;;;;;;5058274;28;20023;-88
2022/12/30 07:06:25;;;;;;;19.60;6.07;;;4.60;99.90;;;;;;4957165;28;20027;-89
2022/12/30 07:08:51;;;;;;;30.70;6.30;;;4.70;99.90;;;;;;4978379;28;20474;-89
2022/12/30 07:11:17;;;;;;;22.73;6.60;;;4.60;99.90;;;;;;4957035;28;20497;-88
2022/12/30 07:13:42;;;;;;;27.45;5.75;;;4.60;99.90;;;;;;5012483;28;20036;-88
2022/12/30 07:16:08;;;;;;;25.08;5.45;;;4.70;99.90;;;;;;5053972;28;20039;-88
2022/12/30 07:18:34;;;;;;;17.75;4.90;;;4.70;99.90;;;;;;4956904;28;20039;-89
2022/12/30 07:21:00;;;;;;;21.35;5.70;;;4.70;99.90;;;;;;4965094;28;20116;-89
2022/12/30 07:23:25;;;;;;;18.90;5.20;;;4.70;99.90;;;;;;5024480;28;20086;-89
2022/12/30 07:25:51;;;;;;;25.15;5.00;;;4.70;99.90;;;;;;5050154;28;20023;-90
2022/12/30 07:28:17;;;;;;;34.40;6.72;;;4.60;99.90;;;;;;4956869;28;20421;-90
2022/12/30 07:30:42;;;;;;;24.50;6.47;;;4.50;99.90;;;;;;4956726;28;20030;-89
2022/12/30 07:33:08;;;;;;;22.85;7.57;;;4.50;99.90;;;;;;4956983;28;20042;-90
2022/12/30 07:35:34;;;;;;;29.70;11.07;;;4.50;99.90;;;;;;4956417;28;20037;-90
2022/12/30 07:38:00;;;;;;;28.33;7.18;;;4.50;99.90;;;;;;4956805;28;20027;-89
2022/12/30 07:40:26;;;;;;;21.48;6.78;;;4.50;99.90;;;;;;4956712;28;20031;-90
2022/12/30 07:42:51;;;;;;;17.17;4.47;;;4.50;99.90;;;;;;4957571;28;20039;-89
2022/12/30 07:45:17;;;;;;;15.80;4.55;;;4.50;99.90;;;;;;4956184;28;20125;-89
2022/12/30 07:47:43;;;;;;;17.10;4.85;;;4.40;99.90;;;;;;4967230;28;20477;-90
2022/12/30 07:50:10;;;;;;;22.38;5.47;;;4.20;99.90;;;;;;4956282;28;20066;-89
2022/12/30 07:52:36;;;;;;;17.40;5.15;;;4.10;99.90;;;;;;4967130;28;20027;-89
2022/12/30 07:55:02;;;;;;;18.98;5.00;;;4.00;99.90;;;;;;4956302;28;20037;-89
2022/12/30 07:57:28;;;;;;;16.58;4.80;;;3.90;99.90;;;;;;5051284;28;20027;-90
2022/12/30 07:59:55;;;;;;;13.18;4.93;;;3.80;99.90;;;;;;4956055;28;20100;-89
2022/12/30 08:02:21;;;;;;;21.88;7.05;;;3.90;99.90;;;;;;4956292;28;20026;-89
2022/12/30 08:04:47;;;;;;;24.38;6.03;;;4.00;99.90;;;;;;5056995;28;20035;-89
2022/12/30 08:07:16;;;;;;;18.15;5.68;;;4.00;99.90;;;;;;4956382;28;20084;-89
2022/12/30 08:09:41;;;;;;;25.65;7.45;;;4.00;99.90;;;;;;4956284;28;20085;-90
2022/12/30 08:12:07;;;;;;;15.85;4.38;;;4.00;99.90;;;;;;4955353;28;20077;-89
2022/12/30 08:14:33;;;;;;;14.93;4.75;;;4.00;99.90;;;;;;4972234;28;20051;-89
2022/12/30 08:16:59;;;;;;;16.45;5.45;;;4.00;99.90;;;;;;4955751;28;20039;-89
2022/12/30 08:19:24;;;;;;;18.63;6.18;;;4.00;99.90;;;;;;4955576;28;20039;-89
2022/12/30 08:25:37;;;;;;;31.13;11.05;;;4.10;99.90;;;;;;4984343;28;20555;-89
2022/12/30 08:28:03;;;;;;;32.10;11.07;;;4.10;99.90;;;;;;4990054;28;20037;-89
2022/12/30 08:30:29;;;;;;;46.83;16.88;;;4.10;99.90;;;;;;5000777;28;20164;-89
2022/12/30 08:32:55;;;;;;;69.93;24.08;;;4.20;99.90;;;;;;5054637;28;20030;-90
2022/12/30 08:35:20;;;;;;;42.50;17.33;;;4.00;99.90;;;;;;4955788;28;20054;-89
2022/12/30 08:37:46;;;;;;;49.70;18.95;;;4.00;99.90;;;;;;4956567;28;20039;-89
2022/12/30 08:40:12;;;;;;;38.60;17.30;;;4.00;99.90;;;;;;4955853;28;20092;-89
2022/12/30 08:42:38;;;;;;;39.38;18.20;;;4.00;99.90;;;;;;4956179;28;20034;-89
2022/12/30 08:45:05;;;;;;;29.23;14.20;;;4.00;99.90;;;;;;4953992;28;20114;-88
2022/12/30 08:47:32;;;;;;;42.42;19.38;;;4.00;99.90;;;;;;4956028;28;20030;-90
2022/12/30 08:49:57;;;;;;;30.63;12.00;;;4.00;99.90;;;;;;4959245;28;20035;-89
2022/12/30 08:52:24;;;;;;;23.85;10.25;;;4.10;99.90;;;;;;4954229;28;20455;-89
2022/12/30 08:54:50;;;;;;;23.65;9.95;;;4.10;99.90;;;;;;4953675;28;20039;-89
2022/12/30 08:57:15;;;;;;;23.75;8.77;;;4.20;99.90;;;;;;4969355;28;20539;-89
2022/12/30 08:59:41;;;;;;;25.80;10.15;;;4.20;99.90;;;;;;4952112;28;20031;-89
2022/12/30 09:02:12;;;;;;;54.55;19.90;;;4.30;99.90;;;;;;4971365;28;20050;-89
2022/12/30 09:04:38;;;;;;;29.58;12.80;;;4.40;99.90;;;;;;4986942;28;20021;-89
2022/12/30 09:07:04;;;;;;;42.70;16.48;;;4.40;99.90;;;;;;4971648;28;20031;-89
2022/12/30 09:09:29;;;;;;;25.02;10.05;;;4.30;99.90;;;;;;4971038;28;20115;-89
2022/12/30 09:11:55;;;;;;;36.70;16.83;;;4.30;99.90;;;;;;5055423;28;20156;-88
2022/12/30 09:14:22;;;;;;;26.48;12.05;;;4.30;99.90;;;;;;4971172;28;20038;-89
2022/12/30 09:16:48;;;;;;;31.02;13.20;;;4.30;99.90;;;;;;5055898;28;20115;-88
2022/12/30 09:19:14;;;;;;;26.35;12.38;;;4.30;99.90;;;;;;5056030;28;20035;-88
2022/12/30 09:21:40;;;;;;;21.60;9.23;;;4.20;99.90;;;;;;4971173;28;20130;-89
2022/12/30 09:24:07;;;;;;;19.00;9.50;;;4.20;99.90;;;;;;4955092;28;20102;-89
2022/12/30 09:26:32;;;;;;;25.55;11.55;;;4.30;99.90;;;;;;4955171;28;20584;-88
2022/12/30 09:28:59;;;;;;;33.58;14.32;;;4.30;99.90;;;;;;4955487;28;20027;-89
2022/12/30 09:31:25;;;;;;;32.22;15.15;;;4.30;99.90;;;;;;4954857;28;20027;-87
2022/12/30 09:33:51;;;;;;;32.22;14.63;;;4.30;99.90;;;;;;4954786;28;20080;-88
2022/12/30 09:36:18;;;;;;;25.10;10.73;;;4.40;99.90;;;;;;5055781;28;20474;-88
2022/12/30 09:38:44;;;;;;;17.50;9.80;;;4.50;99.90;;;;;;4955067;28;20042;-88
2022/12/30 09:41:15;;;;;;;15.48;8.30;;;4.50;99.90;;;;;;5055631;28;20034;-88
2022/12/30 09:43:53;;;;;;;;;;;4.60;99.90;;;;;;4967965;28;20031;-88
2022/12/30 09:46:21;;;;;;;17.08;9.38;;;4.60;99.90;;;;;;5073840;28;19921;-88
2022/12/30 09:49:05;;;;;;;17.00;8.48;;;4.50;99.90;;;;;;4958086;28;20027;-88
2022/12/30 09:51:39;;;;;;;12.70;7.88;;;4.50;99.90;;;;;;5059367;28;20031;-88
2022/12/30 09:54:18;;;;;;;12.90;8.95;;;4.50;99.90;;;;;;5059187;28;20399;-88
2022/12/30 09:56:47;;;;;;;16.23;9.07;;;4.50;99.90;;;;;;4958020;28;20061;-88
2022/12/30 09:59:19;;;;;;;11.45;7.05;;;4.60;99.90;;;;;;5059320;28;20039;-87
2022/12/30 10:01:48;;;;;;;8.63;6.22;;;4.70;99.90;;;;;;4957835;28;20490;-88
2022/12/30 10:04:17;;;;;;;17.55;7.43;;;4.80;99.90;;;;;;5059024;28;20038;-88
2022/12/30 10:06:46;;;;;;;8.52;6.28;;;5.00;99.90;;;;;;4957924;28;20034;-88
2022/12/30 10:09:30;;;;;;;10.18;5.53;;;5.00;99.90;;;;;;5058550;28;20061;-89
2022/12/30 10:12:08;;;;;;;11.60;7.15;;;5.20;99.90;;;;;;5077003;28;20543;-89
2022/12/30 10:14:33;;;;;;;8.32;5.50;;;5.30;99.90;;;;;;4973660;28;20062;-89
2022/12/30 10:16:59;;;;;;;9.35;5.22;;;5.20;99.90;;;;;;5058422;28;20367;-88
2022/12/30 10:19:34;;;;;;;8.98;4.20;;;5.20;99.90;;;;;;4957958;28;20114;-88
2022/12/30 10:22:18;;;;;;;9.13;4.53;;;5.20;99.90;;;;;;4957481;28;20137;-89
2022/12/30 10:25:21;;;;;;;12.35;6.53;;;5.10;99.90;;;;;;4957423;28;20077;-88
2022/12/30 10:27:53;;;;;;;8.50;4.32;;;5.00;99.90;;;;;;4968629;28;20129;-88
2022/12/30 10:30:22;;;;;;;8.57;3.95;;;4.90;99.90;;;;;;5058303;28;20569;-89
2022/12/30 10:32:53;;;;;;;9.30;4.40;;;5.00;99.90;;;;;;4952653;28;20038;-88
2022/12/30 10:35:40;;;;;;;7.28;4.85;;;5.00;99.90;;;;;;4957331;28;20035;-89
2022/12/30 10:38:15;;;;;;;7.05;4.57;;;5.00;99.90;;;;;;5055052;28;20039;-88
2022/12/30 10:41:10;;;;;;;4.90;3.75;;;5.10;99.90;;;;;;4950028;28;20085;-88
2022/12/30 10:43:59;;;;;;;9.07;4.88;;;5.10;99.90;;;;;;4971769;28;20122;-88
2022/12/30 10:46:37;;;;;;;8.05;4.60;;;5.20;99.90;;;;;;4967180;28;20039;-88
2022/12/30 10:49:27;;;;;;;5.85;4.15;;;5.30;99.90;;;;;;5069276;28;20042;-89
2022/12/30 10:51:54;;;;;;;6.63;4.32;;;5.40;99.90;;;;;;5047554;28;20505;-88
2022/12/30 10:54:20;;;;;;;5.97;4.10;;;5.40;99.90;;;;;;4957609;28;20513;-88
2022/12/30 10:56:47;;;;;;;4.97;3.75;;;5.40;99.90;;;;;;4956277;28;20019;-88
2022/12/30 10:59:17;;;;;;;9.02;4.28;;;5.40;99.90;;;;;;4959923;28;20035;-88
2022/12/30 11:01:46;;;;;;;5.68;3.70;;;5.50;99.90;;;;;;4955527;28;20520;-88
2022/12/30 11:04:41;;;;;;;5.70;3.70;;;5.60;99.90;;;;;;4956336;28;20076;-89
2022/12/30 11:07:13;;;;;;;13.68;3.88;;;5.80;99.90;;;;;;4951332;28;20036;-90
2022/12/30 11:09:39;;;;;;;11.57;3.88;;;6.00;99.90;;;;;;4953027;28;20031;-88
2022/12/30 11:15:24;;;;;;;5.40;3.92;;;6.10;99.90;;;;;;4965642;28;20035;-88
2022/12/30 11:17:53;;;;;;;5.90;3.42;;;6.10;99.90;;;;;;4964940;28;20039;-89
2022/12/30 11:20:37;;;;;;;7.35;3.47;;;6.00;99.90;;;;;;4969013;28;20043;-88
2022/12/30 11:23:07;;;;;;;8.65;3.60;;;6.00;99.90;;;;;;4967388;28;20083;-88
2022/12/30 11:25:43;;;;;;;6.97;3.08;;;6.00;99.90;;;;;;4955728;28;20027;-89
2022/12/30 11:28:26;;;;;;;7.38;3.75;;;6.10;99.90;;;;;;4955293;28;20490;-88
2022/12/30 11:30:51;;;;;;;6.03;3.75;;;6.10;99.90;;;;;;4972592;28;20482;-89
2022/12/30 11:33:23;;;;;;;8.82;3.25;;;6.20;99.90;;;;;;4972276;28;20130;-88
2022/12/30 11:35:50;;;;;;;5.57;3.58;;;6.30;99.90;;;;;;4966499;28;20039;-89
2022/12/30 11:38:36;;;;;;;6.75;2.83;;;6.40;99.90;;;;;;4996618;28;20080;-88
2022/12/30 11:41:23;;;;;;;6.25;2.85;;;6.50;99.90;;;;;;4983783;28;20035;-89
2022/12/30 11:44:03;;;;;;;10.80;3.20;;;6.60;99.90;;;;;;4969014;28;20034;-88
2022/12/30 11:46:35;;;;;;;6.18;2.95;;;6.70;99.90;;;;;;5082265;28;20028;-88
2022/12/30 11:49:18;;;;;;;4.75;3.22;;;6.40;99.90;;;;;;4959512;28;20034;-89
2022/12/30 11:51:50;;;;;;;4.57;2.72;;;6.40;99.90;;;;;;4967702;28;20031;-89
2022/12/30 11:54:20;;;;;;;10.85;5.70;;;6.40;99.90;;;;;;5056703;28;20038;-89
2022/12/30 11:57:01;;;;;;;13.27;5.20;;;6.40;99.90;;;;;;4972055;28;20395;-89
2022/12/30 11:59:44;;;;;;;8.05;2.90;;;6.50;99.90;;;;;;5057054;28;20117;-89
2022/12/30 12:02:22;;;;;;;8.32;4.47;;;6.50;99.90;;;;;;4955971;28;20039;-89
2022/12/30 12:04:48;;;;;;;9.60;5.03;;;6.40;99.90;;;;;;4955921;28;20058;-89
2022/12/30 12:07:16;;;;;;;6.20;3.50;;;6.40;99.90;;;;;;5056919;28;20139;-88
2022/12/30 12:09:53;;;;;;;4.15;3.08;;;6.40;99.90;;;;;;4955209;28;20490;-89
2022/12/30 12:12:23;;;;;;;7.20;2.90;;;6.40;99.90;;;;;;5056671;28;20502;-89
2022/12/30 12:15:12;;;;;;;3.75;2.63;;;6.40;99.90;;;;;;4959668;28;20509;-88
2022/12/30 12:18:10;;;;;;;5.72;2.30;;;6.30;99.90;;;;;;4983075;28;20062;-89
2022/12/30 12:20:42;;;;;;;6.88;3.03;;;6.30;99.90;;;;;;5065961;28;20468;-89
2022/12/30 12:23:29;;;;;;;5.05;2.40;;;6.40;99.90;;;;;;4952930;28;20042;-89
2022/12/30 12:26:04;;;;;;;8.07;2.83;;;6.40;99.90;;;;;;4955411;28;20030;-89
2022/12/30 12:28:32;;;;;;;5.82;3.17;;;6.40;99.90;;;;;;4971651;28;20413;-89
2022/12/30 12:31:23;;;;;;;3.08;2.10;;;6.30;99.90;;;;;;4955609;28;20072;-88
2022/12/30 12:34:04;;;;;;;3.55;2.17;;;6.20;99.90;;;;;;5019751;28;20032;-89
2022/12/30 12:36:59;;;;;;;3.42;2.38;;;6.20;99.90;;;;;;5055973;28;20027;-89
2022/12/30 12:39:45;;;;;;;8.75;1.77;;;6.20;99.90;;;;;;4970790;28;20038;-89
2022/12/30 12:42:31;;;;;;;10.10;2.67;;;6.20;99.90;;;;;;4955495;28;20027;-89
2022/12/30 12:45:23;;;;;;;4.32;2.45;;;6.20;99.90;;;;;;4955633;28;20212;-89
2022/12/30 12:47:58;;;;;;;5.50;2.60;;;6.10;99.90;;;;;;5002759;28;20046;-89
2022/12/30 12:50:55;;;;;;;4.95;2.78;;;6.10;99.90;;;;;;4955093;28;20525;-89
2022/12/30 12:53:36;;;;;;;4.80;2.65;;;6.10;99.90;;;;;;4955328;28;20121;-88
2022/12/30 12:56:36;;;;;;;4.50;2.53;;;6.10;99.90;;;;;;4955601;28;20176;-88
2022/12/30 12:59:11;;;;;;;4.32;2.65;;;6.00;99.90;;;;;;4951884;28;20027;-88
2022/12/30 13:02:16;;;;;;;6.72;2.97;;;6.00;99.90;;;;;;4968257;28;20039;-88
2022/12/30 13:05:07;;;;;;;3.90;2.80;;;6.00;99.90;;;;;;5065605;28;20026;-88
2022/12/30 13:07:39;;;;;;;6.97;2.80;;;6.00;99.90;;;;;;4954977;28;20092;-89
2022/12/30 13:10:50;;;;;;;5.15;2.85;;;6.10;99.90;;;;;;4954322;28;20031;-87
2022/12/30 13:13:29;;;;;;;3.67;2.70;;;6.00;99.90;;;;;;5013183;28;20025;-88
2022/12/30 13:16:10;;;;;;;13.40;4.60;;;5.90;99.90;;;;;;4960992;28;20331;-89
2022/12/30 13:18:40;;;;;;;14.65;5.18;;;5.90;99.90;;;;;;5053268;28;20027;-90
2022/12/30 13:21:09;;;;;;;47.80;10.02;;;5.90;99.90;;;;;;4957125;28;20038;-88
2022/12/30 13:23:49;;;;;;;8.23;4.00;;;5.90;99.90;;;;;;4954957;28;20055;-89
2022/12/30 13:26:15;;;;;;;10.48;5.00;;;5.80;99.90;;;;;;4964923;28;20080;-88
2022/12/30 13:28:45;;;;;;;6.45;3.53;;;5.80;99.90;;;;;;4955166;28;20035;-89
2022/12/30 13:31:25;;;;;;;10.98;3.47;;;5.90;99.90;;;;;;5054825;28;20035;-90
2022/12/30 13:34:22;;;;;;;12.13;4.45;;;5.90;99.90;;;;;;4954748;28;20037;-89
2022/12/30 13:36:59;;;;;;;6.93;3.50;;;5.90;99.90;;;;;;4968708;28;20057;-89
2022/12/30 13:39:40;;;;;;;5.05;3.00;;;5.90;99.90;;;;;;4985083;28;20172;-89
2022/12/30 13:42:33;;;;;;;6.13;3.15;;;5.90;99.90;;;;;;4950856;28;20039;-88
2022/12/30 13:44:59;;;;;;;8.30;4.03;;;5.90;99.90;;;;;;5068658;28;20031;-90
2022/12/30 13:47:31;;;;;;;5.38;3.15;;;6.00;99.90;;;;;;4955469;28;20069;-89
2022/12/30 13:49:57;;;;;;;;;;;6.00;99.90;;;;;;4972994;28;20385;-88
2022/12/30 13:52:25;;;;;;;4.63;2.88;;;6.00;99.90;;;;;;5056405;28;19989;-89
2022/12/30 13:54:59;;;;;;;5.60;3.05;;;6.00;99.90;;;;;;5074865;28;20022;-89
2022/12/30 13:57:35;;;;;;;6.93;2.92;;;6.00;99.90;;;;;;4954952;28;20099;-88
2022/12/30 14:00:24;;;;;;;6.05;2.88;;;6.00;99.90;;;;;;4961620;28;20035;-88
2022/12/30 14:03:07;;;;;;;7.68;3.42;;;6.00;99.90;;;;;;4976576;28;20363;-89
2022/12/30 14:05:36;;;;;;;6.47;3.20;;;6.00;99.90;;;;;;4972907;28;20042;-89
2022/12/30 14:08:04;;;;;;;6.90;3.45;;;6.10;99.90;;;;;;4963336;28;20118;-89
2022/12/30 14:10:43;;;;;;;7.07;3.30;;;6.10;99.90;;;;;;4957691;28;20026;-88
2022/12/30 14:13:16;;;;;;;7.22;3.40;;;6.10;99.90;;;;;;4967718;28;20031;-89
2022/12/30 14:15:42;;;;;;;5.00;3.45;;;6.10;99.90;;;;;;4971435;28;20543;-89
2022/12/30 14:18:39;;;;;;;7.28;3.20;;;6.10;99.90;;;;;;4960348;28;20034;-89
2022/12/30 14:21:16;;;;;;;4.57;3.30;;;6.10;99.90;;;;;;4976311;28;20413;-88